CYWL

Williams Lake Airport

Williams Lake, British Columbia, Canada
METAR CYWL 181600Z 11003KT 15SM BKN080 OVC110 06/01 A3017 RMK AC6AC2 SLP236
Observed Flight Rules
Oct-18 @ 16:00 UTC (55 minutes ago) Visual Flight Rules
Wind Visibility Clouds
110° at 3 knots 15 miles
  • Broken at 8,000' AGL
  • Overcast at 11,000' AGL
Temperatures Readings
Current 6°C / 43°F
Dewpoint 1°C / 34°F
Humidity 71%
Altimeter 30.17" Hg
Pressure 1023.6 hPa
Elevation 940
METAR CYWL 181600Z 11003KT 15SM BKN080 OVC110 06/01 A3017 RMK AC6AC2 SLP236
Observed Flight Rules
Oct-18 @ 16:00 UTC
(55 minutes ago)
VFR
Wind Visibility
110° at 3 knots 15 miles
Clouds
  • Broken at 8,000' AGL
  • Overcast at 11,000' AGL
Temperature Dewpoint
6°C / 43°F 1°C / 34°F
Humidity Altimeter Pressure
71% 30.17" Hg 1023.6 hPa